createdAt,value
2023-02-24T00:04:52.638Z,66.50
2023-02-24T00:09:56.887Z,61.30
2023-02-24T00:14:59.953Z,71.20
2023-02-24T00:20:05.634Z,65.93
2023-02-24T00:25:12.274Z,48.57
2023-02-24T00:30:16.446Z,46.77
2023-02-24T00:35:19.883Z,40.33
2023-02-24T00:40:25.069Z,40.20
2023-02-24T00:45:30.923Z,46.23
2023-02-24T00:50:33.975Z,51.07
2023-02-24T00:55:38.460Z,52.40
2023-02-24T01:00:43.498Z,43.77
2023-02-24T01:05:46.495Z,45.50
2023-02-24T01:11:19.178Z,35.93
2023-02-24T01:16:22.483Z,34.20
2023-02-24T01:21:25.529Z,32.67
2023-02-24T01:26:30.917Z,34.70
2023-02-24T01:31:33.926Z,29.70
2023-02-24T01:36:36.854Z,36.47
2023-02-24T01:41:43.807Z,30.63
2023-02-24T01:46:49.680Z,30.57
2023-02-24T01:51:57.374Z,26.43
2023-02-24T01:57:01.787Z,29.17
2023-02-24T02:02:08.962Z,25.63
2023-02-24T02:07:13.742Z,26.60
2023-02-24T02:12:18.069Z,22.90
2023-02-24T02:17:30.435Z,23.67
2023-02-24T02:23:06.692Z,23.60
2023-02-24T02:28:45.460Z,23.27
2023-02-24T02:34:13.861Z,22.60
2023-02-24T02:39:27.337Z,24.37
2023-02-24T02:44:39.754Z,25.63
2023-02-24T02:49:48.965Z,26.50
2023-02-24T02:54:57.708Z,22.63
2023-02-24T03:00:12.334Z,26.07
2023-02-24T03:05:21.474Z,27.07
2023-02-24T03:10:28.881Z,19.53
2023-02-24T03:15:34.185Z,22.50
2023-02-24T03:20:43.023Z,18.87
2023-02-24T03:25:53.361Z,20.10
2023-02-24T03:31:05.063Z,19.70
2023-02-24T03:36:09.946Z,20.37
2023-02-24T03:41:13.527Z,20.70
2023-02-24T03:46:17.996Z,20.40
2023-02-24T03:51:24.332Z,20.07
2023-02-24T03:56:40.472Z,19.27
2023-02-24T04:01:57.929Z,22.00
2023-02-24T04:07:12.997Z,28.60
2023-02-24T04:12:20.885Z,21.20
2023-02-24T04:17:33.175Z,19.13
2023-02-24T04:22:41.521Z,20.43
2023-02-24T04:27:47.318Z,18.23
2023-02-24T04:32:53.422Z,15.33
2023-02-24T04:37:58.306Z,17.43
2023-02-24T04:43:03.083Z,16.23
2023-02-24T04:48:12.107Z,17.57
2023-02-24T04:53:18.102Z,14.67
2023-02-24T04:58:22.592Z,16.07
2023-02-24T05:03:28.492Z,14.57
2023-02-24T05:08:34.161Z,16.70
2023-02-24T05:13:37.694Z,16.17
2023-02-24T05:18:42.667Z,19.53
2023-02-24T05:23:47.938Z,24.30
2023-02-24T05:28:52.290Z,21.70
2023-02-24T05:33:59.191Z,19.73
2023-02-24T05:39:07.443Z,14.23
2023-02-24T05:44:15.836Z,14.90
2023-02-24T05:49:23.432Z,12.87
2023-02-24T05:54:30.667Z,15.87
2023-02-24T05:59:34.459Z,12.43
2023-02-24T06:04:46.532Z,12.83
2023-02-24T06:09:54.046Z,12.47
2023-02-24T06:14:58.101Z,11.50
2023-02-24T06:20:00.988Z,10.07
2023-02-24T06:25:06.666Z,9.07
2023-02-24T06:30:11.555Z,5.47
2023-02-24T06:35:14.567Z,4.53
2023-02-24T06:40:19.940Z,8.30
2023-02-24T06:45:24.221Z,8.50
2023-02-24T06:50:27.167Z,9.53
2023-02-24T06:55:35.543Z,8.07
2023-02-24T07:00:39.153Z,8.90
2023-02-24T07:05:49.304Z,7.60
2023-02-24T07:10:58.296Z,9.80
2023-02-24T07:16:06.847Z,10.37
2023-02-24T07:21:11.652Z,12.07
2023-02-24T07:26:18.451Z,9.73
2023-02-24T07:31:24.265Z,13.97
2023-02-24T07:36:30.289Z,6.83
2023-02-24T07:41:37.113Z,6.83
2023-02-24T07:46:40.774Z,6.30
2023-02-24T07:51:43.806Z,10.10
2023-02-24T07:56:56.252Z,11.77
2023-02-24T08:02:00.632Z,10.60
2023-02-24T08:07:05.242Z,14.07
2023-02-24T08:12:09.765Z,9.67
2023-02-24T08:17:19.842Z,11.40
2023-02-24T08:22:24.202Z,10.63
2023-02-24T08:27:30.674Z,12.43
2023-02-24T08:32:37.213Z,7.87
2023-02-24T08:37:40.666Z,15.27
2023-02-24T08:42:45.094Z,10.37
2023-02-24T08:47:48.582Z,11.80
2023-02-24T08:52:51.686Z,8.33
2023-02-24T08:57:56.318Z,8.50
2023-02-24T09:02:59.200Z,9.80
2023-02-24T09:08:02.259Z,9.90
2023-02-24T09:13:08.688Z,8.70
2023-02-24T09:18:14.373Z,13.23
2023-02-24T09:23:20.944Z,10.97
2023-02-24T09:28:26.857Z,12.73
2023-02-24T09:33:39.106Z,11.37
2023-02-24T09:39:02.359Z,21.97
2023-02-24T09:44:18.713Z,12.20
2023-02-24T09:49:25.245Z,10.47
2023-02-24T09:54:32.835Z,8.20
2023-02-24T10:00:01.432Z,6.53
2023-02-24T10:05:38.615Z,11.20
2023-02-24T10:11:00.889Z,8.20
2023-02-24T10:16:10.570Z,8.90
2023-02-24T10:21:30.583Z,10.70
2023-02-24T10:26:51.265Z,7.47
2023-02-24T10:32:23.647Z,6.13
2023-02-24T10:37:29.533Z,6.30
2023-02-24T10:42:34.492Z,6.23
2023-02-24T10:47:44.383Z,6.40
2023-02-24T10:53:11.287Z,3.93
2023-02-24T10:58:27.840Z,4.47
2023-02-24T11:03:42.022Z,6.97
2023-02-24T11:08:54.640Z,6.67
2023-02-24T11:14:16.918Z,9.83
2023-02-24T11:19:21.674Z,9.07
2023-02-24T11:24:24.900Z,5.97
2023-02-24T11:29:42.171Z,6.83
2023-02-24T11:34:53.817Z,5.60
2023-02-24T11:40:01.609Z,5.27
2023-02-24T11:45:13.865Z,7.40
2023-02-24T11:50:32.063Z,6.63
2023-02-24T11:55:42.501Z,7.17
2023-02-24T12:01:07.526Z,7.47
2023-02-24T12:06:18.395Z,5.83
2023-02-24T12:11:30.430Z,7.60
2023-02-24T12:16:38.447Z,7.23
2023-02-24T12:21:46.076Z,7.00
2023-02-24T12:26:59.510Z,6.67
2023-02-24T12:32:11.382Z,7.63
2023-02-24T12:37:40.378Z,9.60
2023-02-24T12:42:52.258Z,10.60
2023-02-24T12:48:06.442Z,8.53
2023-02-24T12:53:21.696Z,10.33
2023-02-24T12:58:29.933Z,12.10
2023-02-24T13:03:46.245Z,10.10
2023-02-24T13:08:59.487Z,9.20
2023-02-24T13:14:09.559Z,13.23
2023-02-24T13:19:21.510Z,12.00
2023-02-24T13:24:26.549Z,13.30
2023-02-24T13:29:29.568Z,17.10
2023-02-24T13:34:35.028Z,13.13
2023-02-24T13:39:41.964Z,10.43
2023-02-24T13:44:50.099Z,8.83
2023-02-24T13:50:04.762Z,9.70
2023-02-24T13:55:22.410Z,8.97
2023-02-24T14:00:32.698Z,11.23
2023-02-24T14:05:37.171Z,9.93
2023-02-24T14:10:46.819Z,11.40
2023-02-24T14:15:50.094Z,9.80
2023-02-24T14:20:54.515Z,7.40
2023-02-24T14:26:00.863Z,13.70
2023-02-24T14:31:08.130Z,10.27
2023-02-24T14:36:17.644Z,14.33
2023-02-24T14:41:24.801Z,9.73
2023-02-24T14:46:27.855Z,11.93
2023-02-24T14:51:35.677Z,8.80
2023-02-24T14:56:41.539Z,12.63
2023-02-24T15:01:48.695Z,12.33
2023-02-24T15:06:51.768Z,10.23
2023-02-24T15:11:56.894Z,9.83
2023-02-24T15:17:02.331Z,7.37
2023-02-24T15:22:05.956Z,11.00
2023-02-24T15:27:27.053Z,10.13
2023-02-24T15:32:35.377Z,9.57
2023-02-24T15:37:42.688Z,13.87
2023-02-24T15:42:53.255Z,10.23
2023-02-24T15:47:57.820Z,10.30
2023-02-24T15:53:04.873Z,10.17
2023-02-24T15:58:17.167Z,10.70
2023-02-24T16:03:20.616Z,13.03
2023-02-24T16:08:23.633Z,17.50
2023-02-24T16:13:28.560Z,11.13
2023-02-24T16:18:31.569Z,8.43
2023-02-24T16:23:40.285Z,8.60
2023-02-24T16:28:45.227Z,9.77
2023-02-24T16:33:54.562Z,14.63
2023-02-24T16:38:58.771Z,13.70
2023-02-24T16:44:03.902Z,8.83
2023-02-24T16:49:11.769Z,9.13
2023-02-24T16:54:14.748Z,14.83
2023-02-24T16:59:19.262Z,25.10
2023-02-24T17:04:22.712Z,10.77
2023-02-24T17:09:28.691Z,12.90
2023-02-24T17:14:32.999Z,11.77
2023-02-24T17:19:35.987Z,9.50
2023-02-24T17:24:39.148Z,9.10
2023-02-24T17:29:43.600Z,10.50
2023-02-24T17:34:46.681Z,9.67
2023-02-24T17:39:50.127Z,13.10
2023-02-24T17:44:54.484Z,10.40
2023-02-24T17:49:57.462Z,9.07
2023-02-24T17:55:01.216Z,7.20
2023-02-24T18:00:07.862Z,7.87
2023-02-24T18:05:16.704Z,10.43
2023-02-24T18:10:20.070Z,7.33
2023-02-24T18:15:25.621Z,9.00
2023-02-24T18:20:29.740Z,7.23
2023-02-24T18:25:36.139Z,6.67
2023-02-24T18:30:41.058Z,6.80
2023-02-24T18:35:44.470Z,9.03
2023-02-24T18:40:47.359Z,5.13
2023-02-24T18:45:56.797Z,5.93
2023-02-24T18:51:01.558Z,4.63
2023-02-24T18:56:06.711Z,7.70
2023-02-24T19:01:15.910Z,3.87
2023-02-24T19:06:21.542Z,4.73
2023-02-24T19:11:25.775Z,4.00
2023-02-24T19:16:30.858Z,3.63
2023-02-24T19:21:34.526Z,4.20
2023-02-24T19:26:38.662Z,4.50
2023-02-24T19:31:43.062Z,3.43
2023-02-24T19:36:46.924Z,4.73
2023-02-24T19:41:50.220Z,3.50
2023-02-24T19:46:55.306Z,3.67
2023-02-24T19:51:59.212Z,3.67
2023-02-24T19:57:02.188Z,3.47
2023-02-24T20:02:06.798Z,4.73
2023-02-24T20:07:09.957Z,3.50
2023-02-24T20:12:13.106Z,5.60
2023-02-24T20:17:18.340Z,4.93
2023-02-24T20:22:21.653Z,6.40
2023-02-24T20:27:24.647Z,11.00
2023-02-24T20:32:29.483Z,8.50
2023-02-24T20:37:32.575Z,7.80
2023-02-24T20:42:35.834Z,9.33
2023-02-24T20:47:40.519Z,10.00
2023-02-24T20:52:43.753Z,10.40
2023-02-24T20:57:47.042Z,11.10
2023-02-24T21:02:51.931Z,12.47
2023-02-24T21:07:55.303Z,9.13
2023-02-24T21:12:58.396Z,10.00
2023-02-24T21:18:02.872Z,10.57
2023-02-24T21:23:09.534Z,10.57
2023-02-24T21:28:12.485Z,9.70
2023-02-24T21:33:18.680Z,12.87
2023-02-24T21:38:21.598Z,10.13
2023-02-24T21:43:26.760Z,14.07
2023-02-24T21:48:31.209Z,11.60
2023-02-24T21:53:35.622Z,12.17
2023-02-24T21:58:40.366Z,12.87
2023-02-24T22:03:46.016Z,16.63
2023-02-24T22:08:48.964Z,10.77
2023-02-24T22:13:51.881Z,10.80
2023-02-24T22:18:56.777Z,12.50
2023-02-24T22:24:01.080Z,21.93
2023-02-24T22:29:04.975Z,10.00
2023-02-24T22:34:09.310Z,14.33
2023-02-24T22:39:16.402Z,11.60
2023-02-24T22:44:21.096Z,10.83
2023-02-24T22:49:25.311Z,12.97
2023-02-24T22:54:28.164Z,12.70
2023-02-24T22:59:31.149Z,13.30
2023-02-24T23:04:35.448Z,11.77
2023-02-24T23:09:38.370Z,12.40
2023-02-24T23:14:41.281Z,17.37
2023-02-24T23:19:46.622Z,13.57
2023-02-24T23:24:50.863Z,14.63
2023-02-24T23:29:53.695Z,13.43
2023-02-24T23:34:57.950Z,10.70
2023-02-24T23:40:00.889Z,9.87
2023-02-24T23:45:04.467Z,10.97
2023-02-24T23:50:10.312Z,9.67
2023-02-24T23:55:13.746Z,10.43
